Time;durP1;ratioP1;P1;durP2;ratioP2;P2;SDS_P1;SDS_P2;PMS_P1;PMS_P2;Temp;Humidity;BMP_temperature;BMP_pressure;BME280_temperature;BME280_humidity;BME280_pressure;Samples;Min_cycle;Max_cycle;Signal;HPM_P1;HPM_P2
2023/04/06 00:04:53;;;;;;;50.30;27.40;;;;;;;-2.25;68.59;99177.18;217835;1291;22613;-77
2023/04/06 00:09:55;;;;;;;50.60;27.90;;;;;;;-2.28;68.69;99174.10;217491;1302;24003;-78
2023/04/06 00:14:58;;;;;;;56.60;29.80;;;;;;;-2.33;69.09;99170.13;217844;1281;23034;-78
2023/04/06 00:20:01;;;;;;;61.10;32.60;;;;;;;-2.36;69.27;99177.02;217674;1302;22761;-77
2023/04/06 00:25:05;;;;;;;66.90;33.30;;;;;;;-2.38;69.51;99172.84;217998;1302;22606;-78
2023/04/06 00:30:08;;;;;;;64.70;32.50;;;;;;;-2.39;69.30;99171.02;217862;1299;24991;-81
2023/04/06 00:35:21;;;;;;;63.50;29.80;;;;;;;-2.36;69.36;99175.48;217900;1302;22632;-79
2023/04/06 00:40:24;;;;;;;62.20;32.50;;;;;;;-2.26;69.81;99173.80;217700;1298;25146;-77
2023/04/06 00:45:26;;;;;;;64.10;32.90;;;;;;;-2.24;69.81;99177.15;217916;1302;22624;-77
2023/04/06 00:50:29;;;;;;;54.10;30.60;;;;;;;-2.26;69.81;99172.94;217639;1302;22713;-77
2023/04/06 00:55:35;;;;;;;63.10;33.10;;;;;;;-2.27;69.83;99171.48;217844;1296;27547;-75
2023/04/06 01:00:39;;;;;;;75.20;36.00;;;;;;;-2.28;69.97;99167.58;217951;1302;22547;-77
2023/04/06 01:05:44;;;;;;;70.00;36.30;;;;;;;-2.32;70.02;99163.00;217763;1302;22497;-78
2023/04/06 01:10:53;;;;;;;67.30;35.80;;;;;;;-2.35;70.17;99167.11;218048;1299;24166;-76
2023/04/06 01:16:19;;;;;;;74.10;35.70;;;;;;;-2.37;70.28;99167.78;217642;1298;22573;-76
2023/04/06 01:21:33;;;;;;;76.70;37.10;;;;;;;-2.40;70.16;99164.90;217875;1299;25586;-77
2023/04/06 01:26:58;;;;;;;65.40;34.70;;;;;;;-2.43;70.53;99164.21;217650;1295;26128;-76
2023/04/06 01:32:03;;;;;;;73.30;37.20;;;;;;;-2.45;70.53;99161.42;217537;1301;22687;-78
2023/04/06 01:37:08;;;;;;;61.90;34.60;;;;;;;-2.45;70.66;99161.91;217372;1302;22648;-75
2023/04/06 01:42:23;;;;;;;64.40;34.30;;;;;;;-2.43;71.02;99166.27;217431;1299;23813;-77
2023/04/06 01:47:26;;;;;;;67.60;34.80;;;;;;;-2.41;70.98;99162.70;217889;1302;22689;-76
2023/04/06 01:52:33;;;;;;;67.40;33.40;;;;;;;-2.42;71.22;99167.23;217767;1302;25448;-77
2023/04/06 01:57:36;;;;;;;61.10;32.90;;;;;;;-2.42;71.22;99158.81;217820;1297;22542;-76
2023/04/06 02:02:46;;;;;;;63.10;33.10;;;;;;;-2.45;71.40;99165.55;217711;1302;22579;-76
2023/04/06 02:07:55;;;;;;;60.70;33.10;;;;;;;-2.50;71.41;99163.23;217868;1299;23218;-76
2023/04/06 02:13:08;;;;;;;60.10;32.70;;;;;;;-2.54;71.29;99156.41;217389;1301;22549;-76
2023/04/06 02:18:13;;;;;;;58.80;32.60;;;;;;;-2.57;71.60;99154.94;217800;1298;24294;-76
2023/04/06 02:23:17;;;;;;;60.50;31.50;;;;;;;-2.61;71.47;99151.55;217460;1302;23060;-76
2023/04/06 02:28:19;;;;;;;65.40;32.90;;;;;;;-2.63;72.01;99149.43;217526;1302;22807;-77
2023/04/06 02:33:22;;;;;;;64.70;36.70;;;;;;;-2.65;71.85;99153.34;217622;1302;25599;-76
2023/04/06 02:38:27;;;;;;;64.50;34.90;;;;;;;-2.68;71.98;99155.25;217629;1301;24224;-76
2023/04/06 02:43:29;;;;;;;62.90;33.50;;;;;;;-2.70;72.24;99155.07;217864;1296;22766;-75
2023/04/06 02:48:51;;;;;;;55.80;32.70;;;;;;;-2.72;72.56;99158.78;217819;1299;25403;-75
2023/04/06 02:53:55;;;;;;;62.20;33.70;;;;;;;-2.72;72.63;99157.92;217778;1302;22701;-75
2023/04/06 02:58:57;;;;;;;63.00;33.60;;;;;;;-2.73;72.62;99159.20;217555;1302;25014;-75
2023/04/06 03:04:03;;;;;;;62.60;33.80;;;;;;;-2.77;72.57;99162.73;217582;1299;25579;-76
2023/04/06 03:09:06;;;;;;;54.50;29.50;;;;;;;-2.82;72.83;99161.48;217554;1302;22796;-76
2023/04/06 03:14:13;;;;;;;62.40;34.80;;;;;;;-2.87;72.66;99160.75;217640;1302;24273;-75
2023/04/06 03:19:15;;;;;;;63.10;34.10;;;;;;;-2.90;72.56;99163.00;217617;1291;25556;-77
2023/04/06 03:24:19;;;;;;;69.70;37.00;;;;;;;-2.91;72.88;99168.77;217866;1298;22716;-77
2023/04/06 03:29:42;;;;;;;57.80;33.50;;;;;;;-2.91;73.36;99166.00;217911;1296;26792;-76
2023/04/06 03:34:47;;;;;;;57.00;32.50;;;;;;;-2.92;73.13;99169.17;217812;1296;26816;-75
2023/04/06 03:39:49;;;;;;;51.30;31.00;;;;;;;-2.91;73.14;99170.83;217475;1302;24288;-76
2023/04/06 03:44:56;;;;;;;57.70;34.20;;;;;;;-2.87;73.36;99168.00;217675;1296;23128;-76
2023/04/06 03:50:07;;;;;;;53.20;30.90;;;;;;;-2.84;73.40;99169.04;217623;1302;22744;-75
2023/04/06 03:55:14;;;;;;;62.40;33.80;;;;;;;-2.80;73.51;99174.80;217560;1295;22590;-76
2023/04/06 04:00:18;;;;;;;63.80;33.80;;;;;;;-2.79;73.40;99174.58;217740;1302;22730;-76
2023/04/06 04:05:24;;;;;;;61.50;32.90;;;;;;;-2.83;73.44;99176.37;217998;1298;24197;-75
2023/04/06 04:11:07;;;;;;;58.00;31.80;;;;;;;-2.88;73.19;99177.89;217715;1302;24346;-74
2023/04/06 04:16:12;;;;;;;58.10;30.50;;;;;;;-2.92;73.27;99178.64;217669;1302;22905;-75
2023/04/06 04:21:17;;;;;;;55.50;31.20;;;;;;;-2.95;73.45;99177.23;217619;1302;23207;-76
2023/04/06 04:26:31;;;;;;;;;;;;;;;;;;;;;
2023/04/06 04:31:35;;;;;;;47.70;28.30;;;;;;;-2.98;73.67;99180.60;217600;1302;22606;-76
2023/04/06 04:36:41;;;;;;;50.00;28.10;;;;;;;-2.97;73.78;99176.58;218016;1299;22711;-74
2023/04/06 04:41:46;;;;;;;53.20;29.90;;;;;;;-2.95;73.66;99179.52;217715;1279;22623;-75
2023/04/06 04:46:53;;;;;;;44.20;25.30;;;;;;;-2.93;73.91;99173.68;217511;1302;25368;-76
2023/04/06 04:52:09;;;;;;;45.50;26.60;;;;;;;-2.88;73.90;99182.17;217445;1299;24873;-75
2023/04/06 04:57:29;;;;;;;46.50;26.40;;;;;;;-2.80;74.20;99181.52;217754;1299;25512;-76
2023/04/06 05:02:35;;;;;;;51.00;28.30;;;;;;;-2.72;73.83;99178.95;217549;1302;24927;-75
2023/04/06 05:08:18;;;;;;;54.60;30.10;;;;;;;-2.60;73.94;99179.78;218007;1298;24269;-75
2023/04/06 05:13:26;;;;;;;52.90;28.70;;;;;;;-2.46;73.64;99179.56;216482;1302;22556;-76
2023/04/06 05:18:37;;;;;;;58.90;32.20;;;;;;;-2.28;73.71;99179.27;216802;1299;25643;-76
2023/04/06 05:23:43;;;;;;;51.80;29.60;;;;;;;-2.11;73.71;99181.45;216631;1302;24477;-76
2023/04/06 05:29:11;;;;;;;52.00;29.40;;;;;;;-1.90;73.52;99182.00;216839;1286;23212;-76
2023/04/06 05:34:23;;;;;;;45.10;26.50;;;;;;;-1.65;73.47;99180.73;217811;1293;24409;-74
2023/04/06 05:39:32;;;;;;;49.70;25.50;;;;;;;-1.45;73.01;99171.24;216938;1305;24021;-75
2023/04/06 05:45:43;;;;;;;38.60;22.90;;;;;;;-1.21;72.95;99171.17;217835;1302;24256;-77
2023/04/06 05:50:53;;;;;;;42.20;23.80;;;;;;;-0.95;72.53;99162.45;218021;1296;22561;-77
2023/04/06 05:56:02;;;;;;;40.90;24.50;;;;;;;-0.72;72.17;99165.65;217847;1286;24342;-77
2023/04/06 06:01:17;;;;;;;38.90;22.50;;;;;;;-0.52;72.12;99166.35;218289;1287;22642;-76
2023/04/06 06:06:58;;;;;;;39.10;22.20;;;;;;;-0.33;71.40;99169.79;218116;1280;139398;-77
2023/04/06 06:12:07;;;;;;;33.70;21.10;;;;;;;-0.12;71.07;99168.09;217938;1279;140093;-75
2023/04/06 06:17:15;;;;;;;32.50;20.20;;;;;;;0.08;71.14;99161.10;217622;1277;139000;-73
2023/04/06 06:22:51;;;;;;;32.80;20.70;;;;;;;0.28;70.92;99159.96;217945;1286;138828;-77
2023/04/06 06:29:05;;;;;;;40.10;22.30;;;;;;;0.52;70.49;99161.65;217858;1296;140367;-78
2023/04/06 06:34:26;;;;;;;32.40;19.10;;;;;;;0.79;69.99;99158.17;217772;1294;140863;-77
2023/04/06 06:39:53;;;;;;;36.50;19.50;;;;;;;1.03;69.71;99161.91;217889;1296;138873;-77
2023/04/06 06:45:21;;;;;;;29.20;19.20;;;;;;;1.23;68.99;99162.75;217599;1296;138832;-76
2023/04/06 06:50:25;;;;;;;26.90;16.80;;;;;;;1.43;68.62;99163.73;217617;1289;138959;-76
2023/04/06 06:55:28;;;;;;;22.70;14.70;;;;;;;1.65;68.28;99163.56;218060;1285;25353;-75
2023/04/06 07:00:32;;;;;;;25.30;14.70;;;;;;;1.80;66.63;99163.89;218104;1293;139092;-76
2023/04/06 07:05:35;;;;;;;25.40;16.10;;;;;;;1.94;66.67;99164.56;217379;1293;138146;-76
2023/04/06 07:10:38;;;;;;;20.90;13.70;;;;;;;2.14;66.51;99166.90;217529;1299;138783;-76
2023/04/06 07:15:40;;;;;;;19.80;11.20;;;;;;;2.30;65.61;99164.69;217790;1290;138299;-76
2023/04/06 07:20:45;;;;;;;22.20;12.80;;;;;;;2.42;65.00;99161.07;217578;1296;139083;-76
2023/04/06 07:26:08;;;;;;;19.10;11.10;;;;;;;2.56;64.62;99165.70;217897;1293;22549;-75
2023/04/06 07:31:23;;;;;;;21.00;10.90;;;;;;;2.67;63.98;99174.16;217652;1295;138019;-77
2023/04/06 07:36:27;;;;;;;15.70;10.90;;;;;;;2.73;63.22;99178.77;217584;1282;138046;-76
2023/04/06 07:41:33;;;;;;;14.10;9.60;;;;;;;2.81;63.09;99184.75;217616;1283;138310;-77
2023/04/06 07:46:38;;;;;;;15.30;10.30;;;;;;;2.92;62.79;99187.70;217614;1293;140135;-77
2023/04/06 07:51:46;;;;;;;17.50;11.30;;;;;;;3.01;62.51;99184.11;217541;1296;138257;-77
2023/04/06 07:56:52;;;;;;;17.00;10.90;;;;;;;3.15;62.38;99179.94;217525;1289;138176;-76
2023/04/06 08:01:57;;;;;;;20.70;12.00;;;;;;;3.26;62.38;99178.87;217536;1290;26564;-75
2023/04/06 08:07:00;;;;;;;14.20;9.60;;;;;;;3.38;62.08;99176.71;217941;1287;137834;-75
2023/04/06 08:12:03;;;;;;;15.80;10.10;;;;;;;3.53;61.92;99177.33;217825;1293;137816;-77
2023/04/06 08:17:21;;;;;;;36.40;22.90;;;;;;;3.72;61.47;99170.66;217924;1296;138290;-75
2023/04/06 08:22:23;;;;;;;14.80;9.80;;;;;;;3.94;60.92;99169.41;218194;1283;138572;-75
2023/04/06 08:27:26;;;;;;;11.50;7.50;;;;;;;4.06;60.26;99170.67;217860;1283;137985;-76
2023/04/06 08:32:32;;;;;;;14.70;8.20;;;;;;;4.20;59.66;99164.77;218097;1283;138045;-75
2023/04/06 08:37:35;;;;;;;9.70;7.70;;;;;;;4.23;58.94;99165.86;218359;1295;24876;-75
2023/04/06 08:42:56;;;;;;;12.20;8.80;;;;;;;4.21;58.52;99161.64;218059;1294;137944;-74
2023/04/06 08:48:03;;;;;;;10.30;7.20;;;;;;;4.18;58.34;99160.67;218260;1283;138068;-75
2023/04/06 08:53:11;;;;;;;14.50;7.50;;;;;;;4.13;57.70;99155.46;217849;1302;138062;-76
2023/04/06 08:58:28;;;;;;;15.80;8.10;;;;;;;4.07;57.71;99156.16;218404;1295;138297;-74
2023/04/06 09:03:57;;;;;;;12.50;8.90;;;;;;;4.19;58.45;99154.69;218057;1296;137979;-74
2023/04/06 09:09:20;;;;;;;11.50;8.10;;;;;;;4.32;57.95;99144.98;217822;1296;138505;-74
2023/04/06 09:14:41;;;;;;;10.70;8.30;;;;;;;4.33;57.61;99138.32;217797;1296;137919;-75
2023/04/06 09:20:06;;;;;;;12.70;7.90;;;;;;;4.29;57.54;99141.08;218296;1301;22549;-75
2023/04/06 09:25:17;;;;;;;13.80;9.20;;;;;;;4.38;57.70;99136.55;217820;1301;137971;-73
2023/04/06 09:30:20;;;;;;;11.70;7.50;;;;;;;4.62;57.58;99133.98;217873;1301;137877;-75
2023/04/06 09:35:26;;;;;;;9.60;7.40;;;;;;;4.90;57.07;99124.21;217967;1282;138256;-74
2023/04/06 09:40:29;;;;;;;9.40;7.60;;;;;;;5.13;56.75;99123.52;218144;1296;139267;-74
2023/04/06 09:45:54;;;;;;;10.40;7.50;;;;;;;5.33;56.30;99124.48;218257;1286;138514;-74
2023/04/06 09:51:03;;;;;;;10.90;7.70;;;;;;;5.45;55.84;99122.66;218264;1296;138480;-74
2023/04/06 09:56:12;;;;;;;11.30;7.40;;;;;;;5.56;55.92;99108.02;218450;1292;25445;-74
2023/04/06 10:01:20;;;;;;;12.90;9.00;;;;;;;5.65;55.87;99107.23;217976;1279;137662;-74
2023/04/06 10:06:28;;;;;;;12.30;8.80;;;;;;;5.77;55.45;99106.08;218329;1296;137812;-73
2023/04/06 10:11:45;;;;;;;12.60;7.50;;;;;;;5.87;54.89;99106.73;218107;1287;137973;-74
2023/04/06 10:17:30;;;;;;;11.30;8.10;;;;;;;5.92;54.74;99097.11;217941;1283;137927;-75
2023/04/06 10:23:15;;;;;;;11.30;8.10;;;;;;;5.98;54.78;99084.50;217525;1286;736043;-74
2023/04/06 10:28:20;;;;;;;12.10;8.60;;;;;;;5.98;54.59;99078.34;218027;1301;138156;-74
2023/04/06 10:33:37;;;;;;;8.50;7.50;;;;;;;5.98;54.45;99075.86;217960;1292;137993;-74
2023/04/06 10:38:43;;;;;;;11.40;8.90;;;;;;;6.01;54.59;99067.94;217964;1283;137795;-74
2023/04/06 10:43:54;;;;;;;13.70;8.70;;;;;;;6.19;54.87;99069.65;217848;1296;24290;-74
2023/04/06 10:49:38;;;;;;;12.10;9.20;;;;;;;6.31;54.02;99064.92;217958;1284;137591;-74
2023/04/06 10:55:02;;;;;;;11.90;9.20;;;;;;;6.38;53.93;99069.63;218066;1283;137814;-75
2023/04/06 11:00:09;;;;;;;11.20;9.60;;;;;;;6.45;53.71;99063.17;218126;1282;138003;-75
2023/04/06 11:05:16;;;;;;;11.50;8.70;;;;;;;6.57;54.09;99059.08;218334;1286;138553;-75
2023/04/06 11:10:33;;;;;;;;;;;;;;;;;;;;;
2023/04/06 11:15:36;;;;;;;11.60;8.20;;;;;;;6.76;53.12;99052.52;218014;1296;138137;-75
2023/04/06 11:20:47;;;;;;;10.50;8.40;;;;;;;6.69;53.24;99052.41;218112;1296;138237;-75
2023/04/06 11:26:02;;;;;;;12.40;8.90;;;;;;;6.60;53.30;99056.02;217882;1296;23585;-75
2023/04/06 11:31:17;;;;;;;11.50;7.80;;;;;;;6.51;53.59;99053.31;218060;1300;137593;-74
2023/04/06 11:36:20;;;;;;;10.50;8.40;;;;;;;6.45;53.33;99054.05;218142;1300;137926;-74
2023/04/06 11:41:37;;;;;;;9.20;7.10;;;;;;;6.49;53.65;99050.88;218511;1290;138579;-74
2023/04/06 11:46:52;;;;;;;10.80;7.80;;;;;;;6.63;53.42;99051.70;217912;1286;140387;-75
2023/04/06 11:52:00;;;;;;;7.30;6.00;;;;;;;6.64;52.89;99044.36;217843;1283;138593;-75
2023/04/06 11:57:05;;;;;;;6.30;5.40;;;;;;;6.62;52.83;99041.52;218325;1293;137844;-77
2023/04/06 12:02:07;;;;;;;11.00;6.00;;;;;;;6.67;53.12;99040.23;217989;1295;22789;-76
2023/04/06 12:07:33;;;;;;;8.80;5.20;;;;;;;6.66;52.78;99030.39;218038;1289;138242;-75
2023/04/06 12:12:50;;;;;;;5.90;5.00;;;;;;;6.65;52.47;99022.60;217860;1280;138256;-72
2023/04/06 12:17:57;;;;;;;6.20;5.50;;;;;;;6.61;52.71;99016.05;218466;1288;137730;-73
2023/04/06 12:23:13;;;;;;;7.80;5.70;;;;;;;6.56;52.51;99021.45;217959;1283;138048;-74
2023/04/06 12:28:26;;;;;;;6.70;5.10;;;;;;;6.53;52.45;99015.81;218016;1280;137829;-74
2023/04/06 12:33:50;;;;;;;6.30;5.00;;;;;;;6.36;52.52;99016.11;218342;1287;137822;-75
2023/04/06 12:38:57;;;;;;;7.00;4.90;;;;;;;6.25;52.45;99011.81;218436;1280;137927;-76
2023/04/06 12:44:11;;;;;;;6.40;5.20;;;;;;;6.12;52.35;99009.48;218860;1293;22588;-76
2023/04/06 12:49:18;;;;;;;8.40;6.40;;;;;;;5.99;52.60;99003.99;218712;1287;138130;-76
2023/04/06 12:54:21;;;;;;;8.40;6.30;;;;;;;5.96;53.23;99001.97;218354;1286;137627;-77
2023/04/06 12:59:24;;;;;;;8.20;6.00;;;;;;;5.93;53.29;99004.17;218114;1286;138676;-76
2023/04/06 13:04:30;;;;;;;8.00;5.90;;;;;;;5.85;53.03;99000.80;218240;1289;138613;-76
2023/04/06 13:09:37;;;;;;;7.00;5.80;;;;;;;5.73;53.35;98988.56;218313;1293;137851;-74
2023/04/06 13:14:39;;;;;;;8.60;6.90;;;;;;;5.63;53.64;98986.00;218009;1295;138858;-75
2023/04/06 13:24:54;;;;;;;9.90;7.80;;;;;;;5.49;54.32;98975.73;218230;1287;138172;-75
2023/04/06 13:30:00;;;;;;;8.40;7.10;;;;;;;5.47;54.45;98973.48;218276;1280;137650;-75
2023/04/06 13:35:06;;;;;;;9.30;7.80;;;;;;;5.43;54.18;98971.75;217960;1296;137801;-76
2023/04/06 13:40:09;;;;;;;10.50;7.70;;;;;;;5.42;54.59;98969.80;218005;1283;137956;-76
2023/04/06 13:45:11;;;;;;;9.90;8.00;;;;;;;5.41;54.88;98966.75;217755;1295;139966;-76
2023/04/06 13:50:13;;;;;;;12.60;7.80;;;;;;;5.42;55.14;98966.00;218454;1294;22553;-75
2023/04/06 13:55:20;;;;;;;9.00;6.30;;;;;;;5.40;55.12;98961.20;217980;1294;137568;-75
2023/04/06 14:00:24;;;;;;;8.70;7.10;;;;;;;5.23;55.26;98963.99;218044;1290;137675;-73
2023/04/06 14:05:27;;;;;;;7.70;5.70;;;;;;;5.08;56.24;98969.98;218041;1300;23308;-75
2023/04/06 14:10:29;;;;;;;9.40;7.30;;;;;;;4.94;56.85;98971.37;217657;1299;22676;-74
2023/04/06 14:15:33;;;;;;;7.90;6.60;;;;;;;4.77;57.43;98965.69;217649;1302;22586;-75
2023/04/06 14:20:38;;;;;;;9.50;7.10;;;;;;;4.68;58.11;98963.17;217840;1296;22560;-75
2023/04/06 14:25:41;;;;;;;8.50;6.50;;;;;;;4.56;58.90;98962.76;217657;1301;22562;-74
2023/04/06 14:30:44;;;;;;;11.80;6.60;;;;;;;4.40;59.54;98956.09;217903;1302;24282;-73
2023/04/06 14:35:47;;;;;;;11.40;7.30;;;;;;;4.23;59.93;98959.25;218089;1302;22551;-74
2023/04/06 14:40:51;;;;;;;11.40;7.80;;;;;;;4.10;60.38;98955.46;218101;1302;22704;-74
2023/04/06 14:45:53;;;;;;;11.60;7.60;;;;;;;3.98;60.91;98954.81;217827;1301;25394;-73
2023/04/06 14:50:57;;;;;;;11.20;8.00;;;;;;;3.93;61.28;98948.03;218006;1299;24142;-73
2023/04/06 14:55:59;;;;;;;12.90;8.50;;;;;;;3.90;61.30;98949.07;217588;1293;25357;-74
2023/04/06 15:01:02;;;;;;;11.20;8.50;;;;;;;3.86;61.44;98949.94;217736;1288;22661;-73
2023/04/06 15:06:13;;;;;;;13.50;9.60;;;;;;;3.86;61.60;98951.75;217772;1300;22551;-74
2023/04/06 15:11:16;;;;;;;12.90;9.10;;;;;;;3.84;62.04;98955.76;217791;1302;25285;-74
2023/04/06 15:16:19;;;;;;;13.30;9.50;;;;;;;3.76;62.45;98953.87;217578;1302;22664;-74
2023/04/06 15:21:32;;;;;;;12.90;10.20;;;;;;;3.74;62.97;98951.09;217821;1302;22552;-73
2023/04/06 15:27:09;;;;;;;14.90;10.00;;;;;;;3.75;63.16;98949.13;217740;1302;22626;-74
2023/04/06 15:32:34;;;;;;;13.50;10.70;;;;;;;3.72;63.23;98951.29;217816;1300;22584;-74
2023/04/06 15:37:45;;;;;;;12.70;10.10;;;;;;;3.66;63.22;98945.59;217977;1300;22552;-74
2023/04/06 15:42:49;;;;;;;16.10;11.80;;;;;;;3.64;63.58;98943.55;218026;1299;24233;-73
2023/04/06 15:47:56;;;;;;;16.10;10.70;;;;;;;3.61;63.71;98946.77;217742;1286;22556;-74
2023/04/06 15:53:01;;;;;;;16.00;10.80;;;;;;;3.53;63.81;98948.46;217908;1302;22703;-74
2023/04/06 15:58:25;;;;;;;13.50;11.20;;;;;;;3.44;63.75;98950.85;217871;1298;22563;-74
2023/04/06 16:03:27;;;;;;;14.30;11.40;;;;;;;3.35;64.24;98951.39;217618;1302;24634;-74
2023/04/06 16:08:30;;;;;;;16.70;12.80;;;;;;;3.30;64.43;98953.97;217903;1299;24277;-74
2023/04/06 16:13:32;;;;;;;15.90;12.20;;;;;;;3.25;64.90;98953.90;217484;1302;25307;-74
2023/04/06 16:18:35;;;;;;;17.10;11.80;;;;;;;3.20;64.88;98953.27;217491;1302;22560;-75
2023/04/06 16:23:42;;;;;;;16.40;11.70;;;;;;;3.18;65.17;98949.80;217738;1302;23784;-74
2023/04/06 16:28:50;;;;;;;17.10;11.60;;;;;;;3.16;65.24;98947.48;217729;1302;24262;-74
2023/04/06 16:33:57;;;;;;;16.80;12.50;;;;;;;3.15;65.45;98945.34;217748;1302;22602;-74
2023/04/06 16:39:01;;;;;;;17.40;12.40;;;;;;;3.16;65.74;98946.66;218025;1299;22753;-73
2023/04/06 16:44:05;;;;;;;15.00;11.10;;;;;;;3.15;65.76;98943.63;217585;1302;22763;-74
2023/04/06 16:49:10;;;;;;;19.40;12.80;;;;;;;3.12;65.76;98946.48;217634;1302;24182;-74
2023/04/06 16:54:20;;;;;;;15.90;11.20;;;;;;;3.09;65.81;98949.20;217622;1302;22633;-74
2023/04/06 16:59:23;;;;;;;15.20;10.50;;;;;;;3.04;65.80;98953.16;217843;1300;25367;-74
2023/04/06 17:04:26;;;;;;;15.50;10.20;;;;;;;2.99;66.14;98951.86;217562;1302;22694;-72
2023/04/06 17:09:31;;;;;;;15.20;9.00;;;;;;;2.93;66.47;98962.66;217522;1302;24254;-75
2023/04/06 17:14:35;;;;;;;14.40;9.50;;;;;;;2.82;67.36;98966.73;217424;1301;22622;-74
2023/04/06 17:19:39;;;;;;;14.20;9.00;;;;;;;2.72;68.02;98972.30;217576;1302;22625;-76
2023/04/06 17:25:06;;;;;;;16.00;11.40;;;;;;;2.61;68.69;98976.57;217919;1302;22763;-74
2023/04/06 17:30:10;;;;;;;15.20;10.60;;;;;;;2.48;69.20;98983.63;217824;1302;24292;-74
2023/04/06 17:35:13;;;;;;;18.40;11.90;;;;;;;2.33;69.97;98987.50;218004;1302;22554;-74
2023/04/06 17:40:18;;;;;;;14.30;11.20;;;;;;;2.19;70.44;98988.91;217505;1296;22549;-75
2023/04/06 17:45:24;;;;;;;17.70;12.70;;;;;;;2.11;71.18;98996.33;217533;1302;22675;-75
2023/04/06 17:50:29;;;;;;;18.30;13.40;;;;;;;2.05;71.45;98992.69;217568;1302;24413;-74
2023/04/06 17:55:32;;;;;;;16.80;11.80;;;;;;;1.99;71.95;98996.65;217635;1301;25309;-75
2023/04/06 18:00:38;;;;;;;21.10;14.20;;;;;;;1.91;72.41;99007.73;217836;1280;26064;-74
2023/04/06 18:05:43;;;;;;;19.40;13.20;;;;;;;1.85;72.68;99010.22;217765;1300;24089;-75
2023/04/06 18:10:47;;;;;;;21.30;14.90;;;;;;;1.83;73.19;99011.08;217692;1302;22552;-74
2023/04/06 18:15:52;;;;;;;18.50;14.40;;;;;;;1.82;73.44;99007.81;217951;1296;23156;-75
2023/04/06 18:20:55;;;;;;;21.30;15.40;;;;;;;1.79;73.75;99004.26;217559;1302;22574;-75
2023/04/06 18:25:58;;;;;;;21.30;15.30;;;;;;;1.74;73.96;99002.40;217668;1302;22699;-74
2023/04/06 18:31:09;;;;;;;19.30;13.90;;;;;;;1.69;74.23;99003.67;217668;1295;22562;-74
2023/04/06 18:36:13;;;;;;;25.70;17.00;;;;;;;1.65;74.47;99002.63;217922;1302;22565;-74
2023/04/06 18:41:21;;;;;;;21.80;16.00;;;;;;;1.60;74.46;99000.33;217631;1302;25255;-73
2023/04/06 18:46:33;;;;;;;20.80;15.50;;;;;;;1.59;74.71;99001.25;217333;1302;22548;-75
2023/04/06 18:51:36;;;;;;;18.60;13.40;;;;;;;1.57;74.89;99001.54;217618;1302;22595;-74
2023/04/06 18:56:47;;;;;;;19.00;14.30;;;;;;;1.55;75.16;99001.73;217656;1302;22559;-75
2023/04/06 19:01:52;;;;;;;16.90;13.40;;;;;;;1.53;75.31;99005.36;217461;1302;22549;-74
2023/04/06 19:06:56;;;;;;;20.90;16.20;;;;;;;1.53;75.54;99003.11;217607;1296;22551;-73
2023/04/06 19:11:58;;;;;;;21.10;16.80;;;;;;;1.52;75.61;98995.90;217586;1302;22616;-74
2023/04/06 19:17:04;;;;;;;24.50;18.70;;;;;;;1.50;76.04;98997.98;217709;1302;22637;-74
2023/04/06 19:22:10;;;;;;;20.10;15.20;;;;;;;1.47;75.83;98993.73;218036;1298;25380;-74
2023/04/06 19:27:16;;;;;;;19.10;15.20;;;;;;;1.43;76.12;98992.68;217551;1299;22712;-74
2023/04/06 19:32:27;;;;;;;20.80;15.50;;;;;;;1.39;76.39;98988.80;217682;1299;25385;-74
2023/04/06 19:37:34;;;;;;;22.60;16.50;;;;;;;1.37;76.64;98988.92;217762;1296;22898;-73
2023/04/06 19:42:37;;;;;;;22.60;17.00;;;;;;;1.37;76.91;98979.77;217833;1295;22565;-73
2023/04/06 19:47:40;;;;;;;24.40;17.90;;;;;;;1.35;77.34;98972.65;217744;1302;23499;-74
2023/04/06 19:52:43;;;;;;;24.80;18.40;;;;;;;1.30;77.37;98968.20;218013;1298;25423;-74
2023/04/06 19:57:46;;;;;;;27.80;20.80;;;;;;;1.24;77.23;98962.25;217935;1302;25394;-74
2023/04/06 20:02:49;;;;;;;29.40;22.20;;;;;;;1.25;77.54;98956.66;217897;1302;25455;-74
2023/04/06 20:07:52;;;;;;;27.60;20.60;;;;;;;1.27;77.75;98956.36;217596;1301;22748;-74
2023/04/06 20:13:00;;;;;;;25.10;18.70;;;;;;;1.27;78.08;98953.89;217740;1302;22574;-74
2023/04/06 20:18:03;;;;;;;25.20;18.90;;;;;;;1.27;78.21;98956.68;217723;1302;26137;-74
2023/04/06 20:23:17;;;;;;;28.00;19.30;;;;;;;1.26;78.37;98958.31;217473;1302;25290;-75
2023/04/06 20:28:40;;;;;;;25.20;19.40;;;;;;;1.27;78.24;98960.46;217831;1282;24287;-73
2023/04/06 20:33:44;;;;;;;26.90;20.00;;;;;;;1.29;78.55;98958.77;218000;1295;23429;-74
2023/04/06 20:38:47;;;;;;;28.80;20.70;;;;;;;1.30;78.44;98954.36;217784;1290;25561;-74
2023/04/06 20:43:50;;;;;;;35.00;22.60;;;;;;;1.32;78.74;98953.84;217797;1302;23826;-75
2023/04/06 20:48:56;;;;;;;28.80;21.40;;;;;;;1.32;78.62;98950.16;217526;1302;22556;-74
2023/04/06 20:54:06;;;;;;;31.90;22.90;;;;;;;1.31;78.91;98947.85;217694;1302;25513;-74
2023/04/06 20:59:12;;;;;;;30.70;22.40;;;;;;;1.29;78.82;98944.66;217658;1302;22661;-74
2023/04/06 21:04:16;;;;;;;30.20;21.60;;;;;;;1.28;79.02;98936.45;217923;1279;23366;-74
2023/04/06 21:09:26;;;;;;;31.10;22.60;;;;;;;1.26;79.20;98931.73;217599;1302;22567;-74
2023/04/06 21:14:43;;;;;;;29.40;20.50;;;;;;;1.24;79.45;98933.81;217644;1292;22647;-74
2023/04/06 21:19:46;;;;;;;31.50;23.10;;;;;;;1.21;79.51;98928.14;217977;1299;22619;-75
2023/04/06 21:24:48;;;;;;;27.70;20.80;;;;;;;1.20;79.68;98927.77;217788;1302;23067;-74
2023/04/06 21:29:57;;;;;;;30.30;22.10;;;;;;;1.20;79.81;98926.14;217925;1302;22540;-74
2023/04/06 21:35:03;;;;;;;30.60;22.50;;;;;;;1.20;79.86;98921.83;217858;1302;22595;-75
2023/04/06 21:40:07;;;;;;;27.80;21.30;;;;;;;1.17;80.11;98919.48;217637;1302;24503;-75
2023/04/06 21:45:15;;;;;;;33.20;23.20;;;;;;;1.15;80.13;98918.16;217594;1302;22774;-74
2023/04/06 21:50:28;;;;;;;;;;;;;;;1.13;80.34;98914.15;217662;1302;22915;-75
2023/04/06 21:55:45;;;;;;;30.10;23.30;;;;;;;1.10;80.59;98913.27;217721;1302;22593;-74
2023/04/06 22:00:48;;;;;;;30.20;23.30;;;;;;;1.10;80.64;98903.79;217689;1298;24328;-74
2023/04/06 22:05:51;;;;;;;32.90;23.40;;;;;;;1.10;80.55;98897.55;217670;1299;26416;-74
2023/04/06 22:10:57;;;;;;;30.80;23.20;;;;;;;1.10;80.77;98894.73;217679;1302;25173;-75
2023/04/06 22:16:02;;;;;;;31.90;22.60;;;;;;;1.11;80.92;98890.02;217821;1296;24321;-75
2023/04/06 22:21:07;;;;;;;36.00;25.40;;;;;;;1.08;80.85;98883.13;217502;1296;291485;-74
2023/04/06 22:26:13;;;;;;;35.30;24.80;;;;;;;1.04;80.94;98875.73;217969;1298;25653;-74
2023/04/06 22:31:23;;;;;;;37.00;25.90;;;;;;;1.03;80.91;98876.77;217801;1302;22658;-73
2023/04/06 22:36:49;;;;;;;38.40;26.90;;;;;;;1.00;81.27;98871.77;217658;1302;22549;-75
2023/04/06 22:41:52;;;;;;;38.80;26.20;;;;;;;1.00;81.24;98865.04;218079;1302;24236;-74
2023/04/06 22:47:01;;;;;;;38.80;27.40;;;;;;;1.00;81.18;98860.04;217778;1302;23853;-73
2023/04/06 22:52:07;;;;;;;34.00;25.00;;;;;;;1.01;81.35;98858.23;217793;1301;25296;-75
2023/04/06 22:57:09;;;;;;;30.20;23.50;;;;;;;1.01;81.50;98852.65;217982;1296;22552;-74
2023/04/06 23:02:16;;;;;;;33.80;24.50;;;;;;;1.01;81.52;98849.20;217531;1298;25404;-75
2023/04/06 23:07:20;;;;;;;32.40;24.60;;;;;;;1.01;81.71;98848.52;217823;1292;22733;-74
2023/04/06 23:12:23;;;;;;;35.70;25.60;;;;;;;1.01;81.83;98842.43;217910;1300;22575;-74
2023/04/06 23:17:27;;;;;;;36.10;24.70;;;;;;;1.01;81.72;98841.39;218070;1302;25366;-73
2023/04/06 23:22:37;;;;;;;33.00;25.10;;;;;;;0.99;81.62;98838.75;218094;1302;22563;-73
2023/04/06 23:27:40;;;;;;;33.80;24.70;;;;;;;0.98;81.84;98830.90;217757;1302;22552;-73
2023/04/06 23:32:47;;;;;;;34.20;25.30;;;;;;;0.97;81.87;98827.86;217729;1302;23254;-75
2023/04/06 23:37:50;;;;;;;35.80;26.60;;;;;;;0.95;81.83;98824.34;217626;1299;24177;-74
2023/04/06 23:42:56;;;;;;;39.20;27.90;;;;;;;0.96;82.02;98824.29;217890;1299;22552;-75
2023/04/06 23:47:59;;;;;;;36.50;26.20;;;;;;;0.98;81.93;98821.82;218144;1302;22543;-74
2023/04/06 23:53:25;;;;;;;37.40;25.60;;;;;;;0.99;82.19;98817.11;218042;1302;25438;-74